Time;durP1;ratioP1;P1;durP2;ratioP2;P2;SDS_P1;SDS_P2;PMS_P1;PMS_P2;Temp;Humidity;BMP_temperature;BMP_pressure;BME280_temperature;BME280_humidity;BME280_pressure;Samples;Min_cycle;Max_cycle;Signal;HPM_P1;HPM_P2
2021/01/07 00:01:27;;;;;;;5.53;5.03;;;;;;;-0.45;97.44;100032.28;5049577;28;20445;-72
2021/01/07 00:03:52;;;;;;;3.97;3.57;;;;;;;-0.44;96.94;100031.22;5050479;28;20175;-72
2021/01/07 00:06:18;;;;;;;3.80;3.13;;;;;;;-0.45;97.41;100024.25;5050239;28;20262;-72
2021/01/07 00:08:43;;;;;;;12.30;3.50;;;;;;;-0.46;97.52;100022.63;5050474;28;20210;-72
2021/01/07 00:11:10;;;;;;;3.47;2.70;;;;;;;-0.47;97.76;100023.69;5050275;28;20663;-72
2021/01/07 00:13:36;;;;;;;3.70;3.30;;;;;;;-0.46;97.56;100028.00;5050538;28;20175;-73
2021/01/07 00:16:02;;;;;;;6.47;5.87;;;;;;;-0.46;97.71;100030.66;5050329;28;20429;-72
2021/01/07 00:18:28;;;;;;;4.47;4.07;;;;;;;-0.47;97.79;100026.38;5048639;28;20426;-72
2021/01/07 00:20:53;;;;;;;4.70;3.00;;;;;;;-0.45;97.74;100024.25;5049173;28;20555;-72
2021/01/07 00:23:19;;;;;;;5.93;4.70;;;;;;;-0.45;97.56;100019.69;5050434;28;20217;-73
2021/01/07 00:25:55;;;;;;;3.53;3.27;;;;;;;-0.45;97.63;100025.06;5050737;28;20673;-72
2021/01/07 00:28:22;;;;;;;3.23;2.93;;;;;;;-0.46;97.79;100014.56;5048025;28;20565;-72
2021/01/07 00:30:48;;;;;;;2.77;2.57;;;;;;;-0.45;98.01;100013.50;5039447;28;20795;-72
2021/01/07 00:33:15;;;;;;;4.33;3.93;;;;;;;-0.45;98.17;100016.19;5049121;28;20440;-72
2021/01/07 00:35:40;;;;;;;6.80;6.17;;;;;;;-0.46;98.31;100014.56;5050279;28;20673;-73
2021/01/07 00:38:06;;;;;;;12.17;11.00;;;;;;;-0.46;97.84;100012.69;5049564;28;20418;-72
2021/01/07 00:40:32;;;;;;;6.40;5.83;;;;;;;-0.45;98.10;100013.50;5050020;28;20167;-72
2021/01/07 00:42:58;;;;;;;6.50;5.93;;;;;;;-0.45;98.02;100017.00;5050074;28;20187;-73
2021/01/07 00:45:23;;;;;;;9.53;8.53;;;;;;;-0.44;98.73;100015.94;5050068;28;20175;-72
2021/01/07 00:47:48;;;;;;;5.70;5.20;;;;;;;-0.41;98.71;100015.47;5049666;28;20167;-72
2021/01/07 00:50:14;;;;;;;6.47;5.83;;;;;;;-0.42;98.33;100013.03;5065242;28;20184;-73
2021/01/07 00:52:40;;;;;;;11.20;10.10;;;;;;;-0.42;98.01;100008.47;5049757;28;20207;-72
2021/01/07 00:55:07;;;;;;;6.73;6.10;;;;;;;-0.41;98.68;100015.47;5049726;28;20168;-73
2021/01/07 00:57:33;;;;;;;6.80;6.20;;;;;;;-0.41;98.62;100014.66;5049629;28;20398;-72
2021/01/07 00:59:58;;;;;;;7.63;6.80;;;;;;;-0.39;98.14;100009.84;5049742;28;20417;-73
2021/01/07 01:02:23;;;;;;;8.47;7.67;;;;;;;-0.40;98.22;100017.09;5049666;28;20259;-72
2021/01/07 01:04:49;;;;;;;5.93;5.43;;;;;;;-0.41;98.23;100009.28;5049890;28;20176;-72
2021/01/07 01:07:14;;;;;;;2.27;2.03;;;;;;;-0.43;98.53;100014.91;5049619;28;20215;-72
2021/01/07 01:09:39;;;;;;;3.57;3.27;;;;;;;-0.43;98.56;100014.09;5049756;28;20171;-73
2021/01/07 01:12:05;;;;;;;2.60;2.40;;;;;;;-0.45;98.54;100006.28;5049151;28;20211;-73
2021/01/07 01:14:30;;;;;;;3.87;3.47;;;;;;;-0.45;98.44;100013.50;5049200;28;20187;-72
2021/01/07 01:16:56;;;;;;;3.07;2.87;;;;;;;-0.45;98.31;100008.94;5051555;28;20627;-73
2021/01/07 01:19:21;;;;;;;4.13;3.83;;;;;;;-0.47;98.29;100012.94;5053590;28;20186;-73
2021/01/07 01:21:53;;;;;;;3.30;3.00;;;;;;;-0.46;98.66;100009.19;5053403;28;20262;-73
2021/01/07 01:24:19;;;;;;;3.60;3.30;;;;;;;-0.47;98.20;100008.41;5053454;28;20214;-73
2021/01/07 01:26:44;;;;;;;4.93;4.13;;;;;;;-0.48;98.59;100009.47;5052819;28;20475;-73
2021/01/07 01:29:10;;;;;;;3.77;2.83;;;;;;;-0.49;98.23;100005.16;5052232;28;20417;-72
2021/01/07 01:31:39;;;;;;;3.57;3.27;;;;;;;-0.49;98.63;100007.03;5057099;28;20282;-72
2021/01/07 01:34:06;;;;;;;3.53;3.07;;;;;;;-0.49;98.12;100009.72;5062221;28;20175;-72
2021/01/07 01:36:31;;;;;;;2.83;2.63;;;;;;;-0.49;98.45;100012.38;5054188;28;20421;-72
2021/01/07 01:38:56;;;;;;;2.97;2.60;;;;;;;-0.51;98.66;100009.16;5053788;28;20426;-72
2021/01/07 01:41:22;;;;;;;4.43;4.03;;;;;;;-0.53;98.36;100006.72;5053351;28;20627;-72
2021/01/07 01:43:47;;;;;;;2.73;2.53;;;;;;;-0.54;98.48;100004.28;5053113;28;20535;-72
2021/01/07 01:46:12;;;;;;;3.17;2.77;;;;;;;-0.55;98.51;100005.34;5052878;28;20255;-72
2021/01/07 01:48:40;;;;;;;3.83;3.53;;;;;;;-0.54;98.90;100005.09;5052971;28;20623;-72
2021/01/07 01:51:07;;;;;;;3.67;3.37;;;;;;;-0.53;98.68;100003.22;5052941;28;20543;-72
2021/01/07 01:53:33;;;;;;;3.97;3.23;;;;;;;-0.53;98.57;100006.72;5052815;28;20426;-72
2021/01/07 01:56:00;;;;;;;3.47;3.17;;;;;;;-0.51;98.56;100004.59;5052134;28;20479;-72
2021/01/07 01:58:25;;;;;;;4.90;4.50;;;;;;;-0.50;98.65;99986.63;5052466;28;20168;-73
2021/01/07 02:00:51;;;;;;;3.13;2.87;;;;;;;-0.50;98.48;100000.84;5052768;28;20777;-72
2021/01/07 02:03:16;;;;;;;3.90;3.63;;;;;;;-0.49;98.03;100005.16;5052691;28;20627;-72
2021/01/07 02:05:41;;;;;;;5.83;3.50;;;;;;;-0.47;98.06;99996.84;5052640;28;20229;-73
2021/01/07 02:08:09;;;;;;;2.83;2.47;;;;;;;-0.47;98.10;100002.22;5052163;28;20179;-72
2021/01/07 02:10:35;;;;;;;2.97;2.67;;;;;;;-0.45;98.36;100005.47;5052705;28;20354;-72
2021/01/07 02:13:03;;;;;;;3.83;3.43;;;;;;;-0.45;98.44;100008.13;5052696;28;20425;-72
2021/01/07 02:15:29;;;;;;;5.13;4.63;;;;;;;-0.45;98.02;99995.53;5052451;28;20176;-72
2021/01/07 02:17:58;;;;;;;4.47;4.07;;;;;;;-0.44;98.11;100004.41;5052111;28;20525;-72
2021/01/07 02:20:25;;;;;;;4.00;3.30;;;;;;;-0.44;98.12;100009.75;5052220;28;20913;-72
2021/01/07 02:22:54;;;;;;;4.30;3.90;;;;;;;-0.46;98.02;100006.53;5052348;28;20479;-73
2021/01/07 02:25:21;;;;;;;3.77;3.47;;;;;;;-0.46;98.58;100009.19;5051357;28;20471;-72
2021/01/07 02:27:46;;;;;;;6.67;5.97;;;;;;;-0.47;98.30;100012.94;5051836;28;20426;-73
2021/01/07 02:30:12;;;;;;;3.27;3.00;;;;;;;-0.48;98.70;100009.47;5052090;28;20841;-72
2021/01/07 02:32:38;;;;;;;4.70;4.23;;;;;;;-0.49;98.58;100001.66;5050852;28;20599;-72
2021/01/07 02:35:04;;;;;;;2.77;2.57;;;;;;;-0.52;98.44;100005.66;5052200;28;20418;-72
2021/01/07 02:37:33;;;;;;;4.83;4.33;;;;;;;-0.50;98.55;100005.41;5051620;28;20613;-72
2021/01/07 02:39:58;;;;;;;6.17;3.27;;;;;;;-0.52;98.32;100002.16;5052183;28;20465;-72
2021/01/07 02:42:27;;;;;;;3.97;3.03;;;;;;;-0.52;98.73;100002.16;5051966;28;20858;-73
2021/01/07 02:44:53;;;;;;;4.37;3.93;;;;;;;-0.54;98.50;99997.06;5051939;28;20258;-72
2021/01/07 02:47:18;;;;;;;8.17;4.03;;;;;;;-0.55;98.35;99998.13;5051610;28;20421;-73
2021/01/07 02:49:44;;;;;;;3.30;3.00;;;;;;;-0.52;99.06;99997.59;5051783;28;20429;-72
2021/01/07 02:52:09;;;;;;;4.97;4.47;;;;;;;-0.53;98.27;100000.53;5051606;28;20207;-73
2021/01/07 02:54:34;;;;;;;5.70;4.03;;;;;;;-0.52;98.30;100000.28;5051744;28;20240;-72
2021/01/07 02:57:01;;;;;;;5.73;4.03;;;;;;;-0.51;98.88;99993.06;5050019;28;20651;-72
2021/01/07 02:59:26;;;;;;;3.00;2.73;;;;;;;-0.51;98.59;99982.31;5051533;28;20178;-72
2021/01/07 03:01:51;;;;;;;4.77;4.23;;;;;;;-0.51;98.40;99988.50;5051583;28;20418;-72
2021/01/07 03:04:17;;;;;;;5.33;4.57;;;;;;;-0.53;98.53;99984.44;5050104;28;20186;-72
2021/01/07 03:06:42;;;;;;;4.23;3.83;;;;;;;-0.52;98.10;99983.38;5051118;28;20175;-73
2021/01/07 03:09:07;;;;;;;2.40;2.20;;;;;;;-0.51;98.40;99995.72;5051487;28;20266;-72
2021/01/07 03:11:34;;;;;;;3.50;3.20;;;;;;;-0.51;98.61;99985.81;5051481;28;20570;-72
2021/01/07 03:14:00;;;;;;;4.17;3.77;;;;;;;-0.50;98.12;99987.44;5051440;28;20186;-72
2021/01/07 03:16:25;;;;;;;4.53;4.10;;;;;;;-0.47;97.83;99984.25;5050782;28;20413;-72
2021/01/07 03:18:50;;;;;;;6.00;5.40;;;;;;;-0.47;97.77;99989.59;5051123;28;20211;-73
2021/01/07 03:21:16;;;;;;;5.73;4.93;;;;;;;-0.46;97.47;99985.88;5051663;28;20189;-72
2021/01/07 03:23:41;;;;;;;5.63;5.10;;;;;;;-0.45;97.46;100000.91;5051238;28;20188;-72
2021/01/07 03:26:07;;;;;;;5.73;5.20;;;;;;;-0.47;97.27;99981.56;5050930;28;20673;-72
2021/01/07 03:28:32;;;;;;;5.00;4.50;;;;;;;-0.47;97.18;99981.56;5051024;28;20179;-73
2021/01/07 03:30:57;;;;;;;4.77;3.93;;;;;;;-0.47;97.23;99988.81;5050937;28;20199;-72
2021/01/07 03:33:23;;;;;;;5.03;4.50;;;;;;;-0.48;97.11;99992.53;5050512;28;20912;-72
2021/01/07 03:35:48;;;;;;;5.57;5.07;;;;;;;-0.50;97.27;99976.69;5050082;28;20183;-73
2021/01/07 03:38:13;;;;;;;4.13;3.80;;;;;;;-0.51;96.97;99985.00;5049146;28;20225;-72
2021/01/07 03:40:39;;;;;;;6.70;5.33;;;;;;;-0.53;97.33;99985.25;5050899;28;20176;-72
2021/01/07 03:43:04;;;;;;;5.63;4.43;;;;;;;-0.53;96.62;99976.41;5050836;28;20179;-72
2021/01/07 03:45:30;;;;;;;4.30;3.93;;;;;;;-0.54;97.32;99982.81;5049534;28;20670;-72
2021/01/07 03:47:55;;;;;;;4.27;3.87;;;;;;;-0.56;96.96;99971.53;5050322;28;20167;-71
2021/01/07 03:50:21;;;;;;;4.90;4.10;;;;;;;-0.56;96.87;99980.41;5050560;28;20179;-72
2021/01/07 03:52:47;;;;;;;4.20;3.53;;;;;;;-0.57;97.57;99977.97;5050698;28;20619;-72
2021/01/07 03:55:12;;;;;;;5.07;4.60;;;;;;;-0.60;96.78;99977.38;5050591;28;20175;-72
2021/01/07 03:57:37;;;;;;;4.50;4.10;;;;;;;-0.61;97.20;99974.94;5050273;28;20186;-72
2021/01/07 04:00:06;;;;;;;7.87;5.17;;;;;;;-0.62;96.91;99976.81;5050377;28;20179;-72
2021/01/07 04:02:32;;;;;;;5.23;3.97;;;;;;;-0.63;97.03;99977.06;5050232;28;20205;-72
2021/01/07 04:04:57;;;;;;;5.57;3.80;;;;;;;-0.64;97.72;99965.53;5050479;28;20504;-72
2021/01/07 04:07:22;;;;;;;5.10;4.43;;;;;;;-0.64;96.74;99978.94;5049996;28;20228;-72
2021/01/07 04:09:48;;;;;;;5.27;4.77;;;;;;;-0.64;97.48;99976.25;5050426;28;20209;-72
2021/01/07 04:12:13;;;;;;;4.10;3.80;;;;;;;-0.65;96.93;99969.28;5050419;28;20218;-72
2021/01/07 04:14:38;;;;;;;4.80;4.37;;;;;;;-0.65;97.27;99971.97;5050468;28;20187;-72
2021/01/07 04:17:04;;;;;;;3.90;3.50;;;;;;;-0.64;97.34;99968.22;5049897;28;20167;-72
2021/01/07 04:19:29;;;;;;;3.53;3.17;;;;;;;-0.64;97.35;99968.22;5050290;28;20175;-72
2021/01/07 04:21:54;;;;;;;2.53;2.33;;;;;;;-0.63;97.29;99977.06;5050597;28;20229;-72
2021/01/07 04:24:20;;;;;;;4.33;3.93;;;;;;;-0.63;97.36;99966.34;5050279;28;20167;-72
2021/01/07 04:26:45;;;;;;;5.53;5.03;;;;;;;-0.64;97.28;99962.03;5049707;28;20692;-72
2021/01/07 04:29:11;;;;;;;7.00;6.37;;;;;;;-0.65;97.11;99965.78;5048997;28;20262;-72
2021/01/07 04:31:37;;;;;;;10.73;3.63;;;;;;;-0.64;97.39;99975.44;5050179;28;20291;-72
2021/01/07 04:34:03;;;;;;;6.17;5.53;;;;;;;-0.64;97.05;99970.09;5050280;28;20464;-72
2021/01/07 04:36:28;;;;;;;4.87;4.47;;;;;;;-0.65;97.43;99963.91;5049885;28;20182;-73
2021/01/07 04:38:54;;;;;;;2.67;2.47;;;;;;;-0.65;97.32;99960.41;5048933;28;20191;-73
2021/01/07 04:41:20;;;;;;;6.73;6.13;;;;;;;-0.64;97.02;99956.69;5050258;28;20179;-72
2021/01/07 04:43:45;;;;;;;5.73;5.07;;;;;;;-0.63;96.87;99955.63;5048817;28;20708;-72
2021/01/07 04:46:12;;;;;;;6.27;5.67;;;;;;;-0.63;96.48;99959.09;5050022;28;20422;-72
2021/01/07 04:48:39;;;;;;;5.03;4.53;;;;;;;-0.61;96.48;99958.84;5053285;28;20183;-72
2021/01/07 04:51:04;;;;;;;3.77;3.43;;;;;;;-0.61;96.27;99951.63;5054128;28;20465;-72
2021/01/07 04:53:30;;;;;;;3.67;3.37;;;;;;;-0.58;96.64;99952.16;5054054;28;20823;-72
2021/01/07 04:55:56;;;;;;;7.73;7.03;;;;;;;-0.58;96.53;99950.28;5053911;28;20567;-72
2021/01/07 04:58:21;;;;;;;6.80;3.43;;;;;;;-0.57;96.05;99951.13;5053692;28;20175;-72
2021/01/07 05:00:47;;;;;;;3.03;2.60;;;;;;;-0.57;96.11;99957.31;5053713;28;20175;-72
2021/01/07 05:03:20;;;;;;;5.13;3.60;;;;;;;-0.57;96.47;99953.81;5053847;28;20180;-73
2021/01/07 05:05:48;;;;;;;2.83;2.63;;;;;;;-0.57;96.09;99964.56;5053850;28;20254;-72
2021/01/07 05:08:17;;;;;;;3.53;2.63;;;;;;;-0.57;96.75;99953.81;5053444;28;20437;-72
2021/01/07 05:10:46;;;;;;;3.33;3.10;;;;;;;-0.60;96.37;99949.75;5053735;28;20453;-72
2021/01/07 05:13:13;;;;;;;3.33;2.73;;;;;;;-0.60;96.75;99950.56;5053617;28;20421;-72
2021/01/07 05:15:39;;;;;;;4.33;3.97;;;;;;;-0.61;96.67;99951.63;5053956;28;20420;-72
2021/01/07 05:18:05;;;;;;;3.00;2.63;;;;;;;-0.62;96.25;99955.38;5053208;28;20500;-71
2021/01/07 05:20:30;;;;;;;3.43;2.97;;;;;;;-0.62;96.97;99947.31;5052253;28;20520;-72
2021/01/07 05:23:01;;;;;;;5.03;4.30;;;;;;;-0.61;96.35;99946.25;5053600;28;20485;-73
2021/01/07 05:25:30;;;;;;;3.90;3.60;;;;;;;-0.61;96.50;99946.25;5053553;28;20260;-71
2021/01/07 05:28:06;;;;;;;7.77;5.23;;;;;;;-0.58;96.34;99944.94;5052894;28;20521;-72
2021/01/07 05:30:33;;;;;;;5.53;5.03;;;;;;;-0.56;96.15;99945.53;5053157;28;20788;-72
2021/01/07 05:33:04;;;;;;;3.87;3.50;;;;;;;-0.55;96.01;99949.00;5053290;28;20467;-72
2021/01/07 05:35:29;;;;;;;6.43;5.83;;;;;;;-0.55;95.89;99944.47;5053362;28;20474;-73
2021/01/07 05:37:57;;;;;;;4.23;3.83;;;;;;;-0.54;96.22;99943.41;5052969;28;20421;-72
2021/01/07 05:40:23;;;;;;;3.87;3.53;;;;;;;-0.54;95.73;99948.75;5053199;28;20221;-72
2021/01/07 05:42:49;;;;;;;3.40;3.10;;;;;;;-0.52;96.22;99945.81;5053032;28;20426;-72
2021/01/07 05:45:17;;;;;;;5.10;4.63;;;;;;;-0.52;96.09;99945.81;5053166;28;20179;-72
2021/01/07 05:47:49;;;;;;;5.97;3.67;;;;;;;-0.53;96.00;99945.00;5051287;28;20182;-72
2021/01/07 05:50:14;;;;;;;6.07;5.47;;;;;;;-0.53;95.97;99952.25;5051729;28;20436;-73
2021/01/07 05:52:44;;;;;;;6.27;5.77;;;;;;;-0.55;96.46;99957.88;5053058;28;20469;-72
2021/01/07 05:55:17;;;;;;;3.80;3.50;;;;;;;-0.55;96.58;99957.88;5052731;28;20182;-73
2021/01/07 05:57:43;;;;;;;4.13;3.83;;;;;;;-0.57;96.64;99954.63;5051317;28;20422;-72
2021/01/07 06:00:11;;;;;;;4.40;4.00;;;;;;;-0.59;96.61;99962.09;5052841;28;20965;-72
2021/01/07 06:02:39;;;;;;;5.10;4.63;;;;;;;-0.58;96.39;99955.66;5052742;28;20421;-73
2021/01/07 06:05:10;;;;;;;3.40;3.10;;;;;;;-0.58;97.23;99960.22;5052768;28;20424;-72
2021/01/07 06:07:37;;;;;;;2.20;2.00;;;;;;;-0.60;97.33;99961.28;5052590;28;20425;-73
2021/01/07 06:10:04;;;;;;;3.40;3.10;;;;;;;-0.61;97.08;99965.03;5052866;28;20817;-73
2021/01/07 06:12:29;;;;;;;5.53;4.57;;;;;;;-0.61;97.31;99961.53;5052489;28;20568;-72
2021/01/07 06:14:59;;;;;;;4.63;4.23;;;;;;;-0.62;97.30;99966.09;5052609;28;20505;-73
2021/01/07 06:17:24;;;;;;;5.03;4.07;;;;;;;-0.60;97.35;99963.16;5052272;28;20226;-72
2021/01/07 06:19:53;;;;;;;4.83;4.33;;;;;;;-0.61;97.20;99961.53;5052548;28;20517;-73
2021/01/07 06:22:19;;;;;;;6.53;5.50;;;;;;;-0.61;97.33;99966.91;5052372;28;20189;-72
2021/01/07 06:24:50;;;;;;;3.47;3.17;;;;;;;-0.62;97.61;99971.47;5052486;28;20960;-72
2021/01/07 06:27:26;;;;;;;3.50;3.20;;;;;;;-0.64;97.69;99960.16;5052002;28;20437;-72
2021/01/07 06:30:06;;;;;;;3.27;3.07;;;;;;;-0.64;97.61;99968.22;5052318;28;20453;-72
2021/01/07 06:32:32;;;;;;;6.17;4.00;;;;;;;-0.64;97.21;99964.72;5052011;28;20479;-73
2021/01/07 06:34:58;;;;;;;7.73;7.00;;;;;;;-0.64;97.95;99973.59;5052263;28;20456;-72
2021/01/07 06:37:35;;;;;;;5.20;4.00;;;;;;;-0.65;97.39;99958.53;5051884;28;20458;-73
2021/01/07 06:40:09;;;;;;;6.23;4.73;;;;;;;-0.64;97.97;99965.53;5052169;28;20429;-72
2021/01/07 06:42:36;;;;;;;6.07;5.53;;;;;;;-0.64;98.08;99964.72;5052140;28;20418;-73
2021/01/07 06:45:06;;;;;;;6.67;4.63;;;;;;;-0.65;97.75;99958.53;5051826;28;20497;-73
2021/01/07 06:47:32;;;;;;;3.73;3.43;;;;;;;-0.64;98.34;99962.03;5050276;28;20768;-72
2021/01/07 06:49:59;;;;;;;6.43;5.83;;;;;;;-0.65;97.45;99963.09;5051726;28;20493;-73
2021/01/07 06:52:25;;;;;;;7.47;6.27;;;;;;;-0.65;97.80;99968.47;5051917;28;20199;-72
2021/01/07 06:54:55;;;;;;;3.13;2.90;;;;;;;-0.64;98.12;99968.22;5051828;28;20414;-72
2021/01/07 06:57:23;;;;;;;3.27;3.07;;;;;;;-0.64;97.92;99965.53;5051235;28;20425;-73
2021/01/07 06:59:59;;;;;;;3.97;3.57;;;;;;;-0.64;97.42;99959.34;5051465;28;20413;-72
2021/01/07 07:02:27;;;;;;;6.03;5.43;;;;;;;-0.64;98.43;99964.72;5051628;28;20409;-73
2021/01/07 07:05:00;;;;;;;8.63;7.73;;;;;;;-0.64;98.08;99965.53;5051604;28;20418;-73
2021/01/07 07:07:38;;;;;;;7.50;6.80;;;;;;;-0.65;97.48;99971.16;5051146;28;20414;-72
2021/01/07 07:10:18;;;;;;;8.13;7.40;;;;;;;-0.64;98.28;99968.22;5051113;28;21040;-72
2021/01/07 07:12:52;;;;;;;2.77;2.57;;;;;;;-0.64;97.53;99970.91;5051535;28;20947;-72
2021/01/07 07:15:21;;;;;;;7.00;6.23;;;;;;;-0.62;97.89;99979.50;5051522;28;20886;-73
2021/01/07 07:17:47;;;;;;;6.10;5.50;;;;;;;-0.60;97.89;99977.38;5051070;28;20824;-73
2021/01/07 07:20:20;;;;;;;7.60;6.90;;;;;;;-0.58;97.98;99981.69;5051519;28;20905;-72
2021/01/07 07:22:46;;;;;;;3.83;3.53;;;;;;;-0.57;97.92;99976.09;5051356;28;20421;-72
2021/01/07 07:25:13;;;;;;;5.30;4.90;;;;;;;-0.56;97.51;99984.94;5051323;28;20496;-73
2021/01/07 07:27:49;;;;;;;5.43;4.87;;;;;;;-0.53;97.88;99993.31;5050723;28;20473;-73
2021/01/07 07:30:24;;;;;;;9.57;8.67;;;;;;;-0.53;97.51;99987.13;5051536;28;20401;-73
2021/01/07 07:32:50;;;;;;;4.70;4.30;;;;;;;-0.52;97.55;99991.44;5051323;28;20520;-73
2021/01/07 07:35:30;;;;;;;7.13;6.47;;;;;;;-0.51;97.94;99995.72;5049916;28;20517;-73
2021/01/07 07:37:56;;;;;;;3.10;2.83;;;;;;;-0.49;97.45;99991.75;5050924;28;20643;-73
2021/01/07 07:40:39;;;;;;;3.90;3.47;;;;;;;-0.48;97.92;99984.50;5051724;28;20497;-72
2021/01/07 07:43:06;;;;;;;2.67;2.47;;;;;;;-0.48;97.87;99992.53;5057696;28;20445;-73
2021/01/07 07:45:33;;;;;;;5.97;4.70;;;;;;;-0.47;97.90;99997.66;5058075;28;20501;-73
2021/01/07 07:47:59;;;;;;;2.87;2.67;;;;;;;-0.45;98.10;100000.09;5053121;28;20890;-73
2021/01/07 07:50:29;;;;;;;7.10;6.40;;;;;;;-0.43;97.91;99996.13;5051227;28;20425;-73
2021/01/07 07:53:11;;;;;;;3.03;2.77;;;;;;;-0.42;97.49;100003.09;5051139;28;20259;-73
2021/01/07 07:55:38;;;;;;;7.60;6.90;;;;;;;-0.42;97.61;99999.63;5050254;28;20444;-73
2021/01/07 07:58:07;;;;;;;4.37;3.73;;;;;;;-0.40;97.83;100006.34;5050521;28;20425;-73
2021/01/07 08:00:33;;;;;;;5.97;4.93;;;;;;;-0.43;97.57;99998.81;5050758;28;20418;-73
2021/01/07 08:02:58;;;;;;;3.60;3.30;;;;;;;-0.41;97.62;100009.28;5050756;28;20418;-73
2021/01/07 08:05:28;;;;;;;3.33;3.03;;;;;;;-0.41;97.75;100007.41;5049441;28;20518;-73
2021/01/07 08:07:55;;;;;;;5.20;3.40;;;;;;;-0.41;97.14;100010.09;5050314;28;20186;-73
2021/01/07 08:10:21;;;;;;;4.50;4.10;;;;;;;-0.39;97.12;100009.84;5045279;28;20456;-73
2021/01/07 08:12:47;;;;;;;10.80;9.80;;;;;;;-0.37;97.61;100015.75;5047908;28;21000;-73
2021/01/07 08:15:29;;;;;;;3.27;2.97;;;;;;;-0.37;97.21;100021.94;5050711;28;20453;-72
2021/01/07 08:17:55;;;;;;;3.17;2.97;;;;;;;-0.36;97.38;100012.03;5049995;28;20175;-73
2021/01/07 08:20:24;;;;;;;4.83;4.33;;;;;;;-0.36;97.32;100017.38;5050047;28;20422;-72
2021/01/07 08:22:51;;;;;;;27.40;4.60;;;;;;;-0.36;97.06;100006.66;5052197;28;20969;-72
2021/01/07 08:25:29;;;;;;;5.20;4.80;;;;;;;-0.34;96.76;100012.56;5051639;28;20424;-72
2021/01/07 08:28:00;;;;;;;5.20;4.73;;;;;;;-0.35;97.78;100016.31;5053692;28;20782;-72
2021/01/07 08:30:26;;;;;;;2.13;1.93;;;;;;;-0.33;97.55;100016.88;5054311;28;20475;-72
2021/01/07 08:32:58;;;;;;;8.07;7.37;;;;;;;-0.34;97.13;100015.25;5054684;28;20445;-71
2021/01/07 08:35:24;;;;;;;6.33;5.73;;;;;;;-0.33;97.41;100006.97;5054441;28;20414;-72
2021/01/07 08:37:49;;;;;;;6.17;5.53;;;;;;;-0.30;97.51;100011.00;5054156;28;20429;-72
2021/01/07 08:40:15;;;;;;;5.13;4.73;;;;;;;-0.30;97.29;100011.81;5053351;28;20691;-72
2021/01/07 08:42:41;;;;;;;5.33;4.80;;;;;;;-0.31;97.11;100010.19;5054421;28;20179;-72
2021/01/07 08:45:09;;;;;;;4.83;4.13;;;;;;;-0.28;97.21;100000.84;5054396;28;20182;-73
2021/01/07 08:47:35;;;;;;;3.43;3.13;;;;;;;-0.29;96.82;100009.94;5053880;28;20186;-71
2021/01/07 08:50:05;;;;;;;6.97;6.37;;;;;;;-0.28;96.37;100003.53;5054091;28;20504;-72
2021/01/07 08:52:31;;;;;;;5.10;4.70;;;;;;;-0.25;96.60;100002.22;5054217;28;20201;-72
2021/01/07 08:54:56;;;;;;;4.77;4.37;;;;;;;-0.23;96.33;100006.28;5054338;28;20417;-73
2021/01/07 08:57:21;;;;;;;7.10;6.50;;;;;;;-0.22;96.26;99996.34;5053184;28;20206;-72
2021/01/07 08:59:47;;;;;;;4.30;3.90;;;;;;;-0.22;95.93;99999.03;5053774;28;20372;-72
2021/01/07 09:02:19;;;;;;;6.87;6.30;;;;;;;-0.22;95.69;99999.84;5053904;28;20179;-73
2021/01/07 09:04:44;;;;;;;6.50;5.47;;;;;;;-0.20;95.42;100000.41;5053577;28;20171;-72
2021/01/07 09:07:20;;;;;;;8.67;7.90;;;;;;;-0.20;96.02;99995.03;5053498;28;20443;-72
2021/01/07 09:09:46;;;;;;;2.27;2.07;;;;;;;-0.18;95.51;100011.69;5053940;28;20793;-72
2021/01/07 09:12:15;;;;;;;24.73;15.83;;;;;;;-0.17;95.60;100010.63;5053381;28;20491;-72
2021/01/07 09:14:43;;;;;;;15.23;11.40;;;;;;;-0.17;95.14;100010.63;5053051;28;20175;-72
2021/01/07 09:17:08;;;;;;;16.93;12.47;;;;;;;-0.17;95.76;100005.25;5051685;28;20584;-73
2021/01/07 09:19:34;;;;;;;9.73;8.33;;;;;;;-0.16;95.71;100000.69;5053168;28;20492;-73
2021/01/07 09:22:01;;;;;;;6.40;5.90;;;;;;;-0.17;95.67;100002.56;5053261;28;20203;-72
2021/01/07 09:24:31;;;;;;;7.47;6.80;;;;;;;-0.17;95.53;100004.44;5053031;28;20195;-72
2021/01/07 09:27:07;;;;;;;4.13;3.83;;;;;;;-0.19;95.58;100007.38;5052370;28;20433;-72
2021/01/07 09:29:33;;;;;;;5.87;5.37;;;;;;;-0.17;95.70;99996.41;5051501;28;20413;-72
2021/01/07 09:31:58;;;;;;;4.93;4.50;;;;;;;-0.17;95.39;100007.13;5051701;28;20472;-72
2021/01/07 09:34:24;;;;;;;6.43;5.83;;;;;;;-0.16;95.52;100006.88;5052512;28;20178;-72
2021/01/07 09:36:49;;;;;;;5.03;4.53;;;;;;;-0.17;95.42;100013.31;5052580;28;20262;-72
2021/01/07 09:39:14;;;;;;;6.90;6.20;;;;;;;-0.15;95.17;100007.69;5052946;28;20525;-72
2021/01/07 09:41:40;;;;;;;3.97;3.67;;;;;;;-0.14;95.35;100009.34;5052831;28;20195;-72
2021/01/07 09:44:08;;;;;;;7.00;6.40;;;;;;;-0.14;95.13;100007.47;5051446;28;20227;-72
2021/01/07 09:46:33;;;;;;;5.80;5.30;;;;;;;-0.11;95.15;100009.63;5052034;28;20525;-72
2021/01/07 09:48:59;;;;;;;7.73;7.03;;;;;;;-0.08;94.33;100008.31;5052811;28;20414;-73
2021/01/07 09:51:24;;;;;;;3.10;2.87;;;;;;;-0.06;94.67;100012.38;5051232;28;20199;-72
2021/01/07 09:53:49;;;;;;;2.93;2.63;;;;;;;-0.06;93.92;100009.69;5051280;28;20182;-73
2021/01/07 09:56:18;;;;;;;4.73;4.17;;;;;;;-0.06;93.95;100009.69;5050643;28;20178;-72
2021/01/07 09:58:43;;;;;;;4.17;3.83;;;;;;;-0.03;94.11;100017.22;5052252;28;20210;-72
2021/01/07 10:01:08;;;;;;;4.87;4.47;;;;;;;-0.01;93.73;100003.53;5051182;28;20457;-72
2021/01/07 10:03:34;;;;;;;4.73;4.33;;;;;;;-0.01;93.73;100012.41;5052500;28;20175;-72
2021/01/07 10:05:59;;;;;;;4.30;4.00;;;;;;;0.01;93.74;100008.69;5052299;28;20183;-72
2021/01/07 10:08:24;;;;;;;3.60;3.30;;;;;;;0.03;93.91;100006.56;5051755;28;20199;-72
2021/01/07 10:10:49;;;;;;;4.70;4.30;;;;;;;0.03;93.96;100009.25;5052171;28;20195;-72
2021/01/07 10:13:15;;;;;;;3.87;3.57;;;;;;;0.05;94.23;100005.25;5051991;28;20171;-72
2021/01/07 10:15:40;;;;;;;6.43;5.83;;;;;;;0.07;93.76;100004.97;5052288;28;20465;-72
2021/01/07 10:18:05;;;;;;;5.03;4.63;;;;;;;0.08;94.65;100007.41;5051527;28;20179;-72
2021/01/07 10:20:31;;;;;;;7.07;6.40;;;;;;;0.07;94.21;100005.78;5050603;28;20191;-71
2021/01/07 10:22:56;;;;;;;7.40;6.70;;;;;;;0.09;94.63;100005.53;5051969;28;20210;-72
2021/01/07 10:25:22;;;;;;;5.40;4.93;;;;;;;0.11;94.51;100001.53;5051953;28;20183;-72
2021/01/07 10:27:48;;;;;;;4.60;4.20;;;;;;;0.08;94.24;100001.22;5049737;28;20183;-72
2021/01/07 10:30:14;;;;;;;3.40;3.10;;;;;;;0.04;94.49;100009.00;5051859;28;20184;-72
2021/01/07 10:32:39;;;;;;;4.83;4.43;;;;;;;0.06;94.68;99998.00;5051614;28;20538;-72
2021/01/07 10:35:05;;;;;;;4.67;2.97;;;;;;;0.08;94.52;99993.19;5051968;28;20176;-72
2021/01/07 10:37:32;;;;;;;4.13;3.83;;;;;;;0.11;93.59;99998.03;5048693;28;20329;-72
2021/01/07 10:40:01;;;;;;;4.30;4.00;;;;;;;0.15;93.61;99989.25;5051655;28;20189;-72
2021/01/07 10:42:26;;;;;;;3.40;3.17;;;;;;;0.16;93.71;99998.09;5031751;28;20422;-72
2021/01/07 10:44:52;;;;;;;4.33;4.03;;;;;;;0.19;93.98;99984.16;5035486;28;20426;-71
2021/01/07 10:47:17;;;;;;;3.73;3.00;;;;;;;0.20;93.14;99991.97;5031484;28;20168;-72
2021/01/07 10:49:46;;;;;;;6.97;6.37;;;;;;;0.23;93.10;99987.94;5044926;28;20225;-72
2021/01/07 10:52:59;;;;;;;3.80;3.43;;;;;;;0.21;93.14;99985.53;5051690;28;20288;-72
2021/01/07 10:55:26;;;;;;;6.03;4.13;;;;;;;0.21;92.71;99990.09;5033837;28;20510;-73
2021/01/07 10:58:20;;;;;;;5.20;4.20;;;;;;;0.23;92.48;99987.94;5071316;28;20424;-72
2021/01/07 11:01:08;;;;;;;2.70;2.50;;;;;;;0.25;92.26;99975.06;5071694;28;20419;-72
2021/01/07 11:04:01;;;;;;;3.33;3.03;;;;;;;0.25;92.21;99973.19;5041333;28;20896;-71
2021/01/07 11:06:32;;;;;;;3.63;2.63;;;;;;;0.25;91.66;99973.19;5068394;28;21051;-73
2021/01/07 11:09:03;;;;;;;3.40;3.20;;;;;;;0.29;91.48;99973.53;5046301;28;20508;-73
2021/01/07 11:11:36;;;;;;;3.33;3.10;;;;;;;0.29;90.46;99976.22;5046066;28;20552;-73
2021/01/07 11:14:06;;;;;;;2.63;2.43;;;;;;;0.32;90.85;99967.63;5051440;28;20436;-72
2021/01/07 11:17:00;;;;;;;4.33;2.60;;;;;;;0.32;90.57;99964.94;5051083;28;20791;-71
2021/01/07 11:19:27;;;;;;;2.33;2.13;;;;;;;0.32;90.83;99969.50;5049369;28;20473;-73
2021/01/07 11:21:59;;;;;;;3.93;3.33;;;;;;;0.32;91.25;99964.94;5051346;28;20425;-72
2021/01/07 11:24:26;;;;;;;3.13;2.83;;;;;;;0.33;90.67;99965.75;5051450;28;20433;-72
2021/01/07 11:26:57;;;;;;;2.60;2.17;;;;;;;0.34;91.12;99962.00;5050912;28;20949;-72
2021/01/07 11:29:22;;;;;;;3.03;2.83;;;;;;;0.30;90.93;99945.59;5049982;28;20987;-72
2021/01/07 11:31:48;;;;;;;2.63;2.43;;;;;;;0.30;91.48;99961.69;5051159;28;20465;-73